Terminal Aerodrome Forecast
Issued by NWS Upton, NY

Home | Current Version | Previous Version | Text Only | Print | Product List | Glossary On
Versions: 1 2 3 4 5 6 7 8 9 10 11 12 13 14 15 16 17 18 19 20 21 22 23 24 25 26 27 28 29 30 31
000
FTUS41 KOKX 211100 RRA
TAFISP
TAF
KISP 211141Z 2112/2212 VRB03KT P6SM FEW050 BKN130
     FM211500 15005KT P6SM FEW040 SCT080 BKN130
     FM212300 VRB04KT 6SM -RA BKN060
     FM220700 04008KT 6SM -RA BKN015=

USA.gov is the U.S. government's official web portal to all federal, state and local government web resources and services.